Finlandia — OJPP — position and weather

sailwx.info

Track history (hours):
 
Tides and Currents Weather Stations Pressure Air Temp Water Temp Dewpoint Dewpoint Depression Visibility Wind Speed Wind Dir Waves Ship Positions

Finlandia

Last reported at 2015-Aug-03 08:24 UTC. Time now 2015-Aug-03 08:39 UTC.
Position N 59°27' E 024°46'.

Length 175 m; draft 7 m.

Type: Passenger vessel. MMSI: 230628000.

Date/timePositionNaut miles runAvg speedWind from/ knotsBaromVisibWave heightAir tempDewpointWater temp
2015-Aug-03 08:24N 59°27' E 024°46'2 2.0
2015-Aug-03 07:33N 59°28' E 024°46'2222.2
2015-Aug-03 06:33N 59°51' E 024°49'12 0.9
2015-Aug-02 16:33N 59°39' E 024°43'1211.9
2015-Aug-02 15:33N 59°27' E 024°46'1 0.8
2015-Aug-02 14:33N 59°27' E 024°47'2522.1
2015-Aug-02 13:26N 59°52' E 024°50'17 4.3
2015-Aug-02 09:33N 59°36' E 024°41'8 4.0
2015-Aug-02 07:33N 59°29' E 024°46'1918.8
2015-Aug-02 06:33N 59°47' E 024°49'22 4.1
2015-Aug-02 01:04N 60°09' E 024°55'0 0.0
2015-Aug-02 00:28N 60°09' E 024°55'0 0.0
2015-Aug-01 23:28N 60°09' E 024°55'33 4.8
2015-Aug-01 16:34N 59°36' E 024°41'10 9.5
2015-Aug-01 15:31N 59°27' E 024°46'0 0.3
2015-Aug-01 14:34N 59°27' E 024°47'2421.9
2015-Aug-01 13:28N 59°51' E 024°48'15 3.7
2015-Aug-01 09:33N 59°37' E 024°41'1010.0
2015-Aug-01 08:31N 59°27' E 024°46'2 2.3
2015-Aug-01 07:33N 59°29' E 024°46'18 1.2
2015-Jul-31 17:11N 59°47' E 024°45'1219.1
2015-Jul-31 16:33N 59°35' E 024°42'8 4.0
2015-Jul-31 14:33N 59°27' E 024°47'10 2.0
2015-Jul-31 09:32N 59°37' E 024°41'1110.4
2015-Jul-31 08:31N 59°27' E 024°46'2 2.1
2015-Jul-31 07:33N 59°29' E 024°46'20 1.4
2015-Jul-30 17:22N 59°48' E 024°52'1619.3
2015-Jul-30 16:34N 59°33' E 024°43'7 6.2
2015-Jul-30 15:29N 59°27' E 024°46'3 2.8
2015-Jul-30 14:34N 59°29' E 024°45'2322.9
2015-Jul-30 13:33N 59°52' E 024°49'2 0.5
2015-Jul-30 10:23N 59°51' E 024°48'1822.2
2015-Jul-30 09:33N 59°33' E 024°44'6 5.9
2015-Jul-30 08:32N 59°27' E 024°46'2 2.3
2015-Jul-30 07:34N 59°29' E 024°46'2119.8
2015-Jul-30 06:31N 59°50' E 024°47'17 1.4
2015-Jul-29 18:17N 60°07' E 024°54'1419.2
2015-Jul-29 17:33N 59°53' E 024°51'1919.0
2015-Jul-29 16:34N 59°34' E 024°43'7 6.4
2015-Jul-29 15:23N 59°27' E 024°46'17 3.3
2015-Jul-29 10:03N 59°44' E 024°48'1122.0
2015-Jul-29 09:34N 59°34' E 024°43'7 6.9
2015-Jul-29 08:32N 59°27' E 024°46'2 2.5
2015-Jul-29 07:34N 59°29' E 024°45'2420.3
2015-Jul-29 06:24N 59°53' E 024°51'17 2.4
2015-Jul-28 23:21N 60°09' E 024°55'0 0.0
2015-Jul-28 21:24N 60°09' E 024°55'0 0.0
2015-Jul-28 20:33N 60°09' E 024°55'0 0.0
2015-Jul-28 19:33N 60°09' E 024°55'0 0.0
2015-Jul-28 18:33N 60°09' E 024°55'1616.2
2015-Jul-28 17:33N 59°53' E 024°55'1817.7
2015-Jul-28 16:33N 59°37' E 024°41'9 4.7
2015-Jul-28 14:33N 59°28' E 024°46'2322.6
2015-Jul-28 13:34N 59°50' E 024°46'1919.3
2015-Jul-28 12:33N 60°09' E 024°55'23 9.6
2015-Jul-28 10:07N 59°46' E 024°48'1321.1
2015-Jul-28 09:29N 59°33' E 024°44'4 2.1
2015-Jul-28 07:33N 59°29' E 024°46'7 0.5
2015-Jul-27 16:34N 59°36' E 024°41'7 3.7
2015-Jul-27 14:32N 59°28' E 024°46'17 3.7
2015-Jul-27 10:04N 59°45' E 024°47'1222.7
2015-Jul-27 09:33N 59°34' E 024°43'4 2.0
2015-Jul-27 07:32N 59°30' E 024°45'10 0.7
2015-Jul-26 16:33N 59°40' E 024°45'1313.1
2015-Jul-26 15:33N 59°27' E 024°46'1 0.9
2015-Jul-26 14:34N 59°27' E 024°47'21 4.7
2015-Jul-26 10:09N 59°48' E 024°45'1321.4
2015-Jul-26 09:33N 59°35' E 024°42'9 8.6
2015-Jul-26 08:31N 59°27' E 024°46'2 1.7
2015-Jul-26 07:34N 59°28' E 024°46'1919.0
2015-Jul-26 06:34N 59°47' E 024°50'22 1.8
2015-Jul-25 18:28N 60°09' E 024°55'1516.2
2015-Jul-25 17:33N 59°54' E 024°55'1918.6
2015-Jul-25 16:33N 59°37' E 024°41'1010.3
2015-Jul-25 15:33N 59°27' E 024°46'1 0.5
2015-Jul-25 14:33N 59°27' E 024°46'2120.4
2015-Jul-25 13:32N 59°48' E 024°49'21 9.5
2015-Jul-25 11:17N 60°09' E 024°55'1216.6
2015-Jul-25 10:33N 59°57' E 024°53'2120.9
2015-Jul-25 09:33N 59°37' E 024°41'10 9.8
2015-Jul-25 08:29N 59°27' E 024°46'3 3.6
2015-Jul-25 07:33N 59°30' E 024°45'1919.4
2015-Jul-25 06:33N 59°49' E 024°50'5 0.4
2015-Jul-24 17:18N 59°44' E 024°48'1520.1
2015-Jul-24 16:33N 59°29' E 024°46'3 2.6
2015-Jul-24 15:31N 59°27' E 024°46'8 7.9
2015-Jul-24 14:33N 59°34' E 024°41'3 0.5
2015-Jul-24 09:34N 59°36' E 024°41'10 9.7
2015-Jul-24 08:32N 59°27' E 024°46'  
Track history (hours):
 
Tides and Currents Weather Stations Pressure Air Temp Water Temp Dewpoint Dewpoint Depression Visibility Wind Speed Wind Dir Waves Ship Positions

Finlandia

Last reported at 2015-Aug-03 08:24 UTC. Time now 2015-Aug-03 08:39 UTC.
Position N 59°27' E 024°46'.

Length 175 m; draft 7 m.

Type: Passenger vessel. MMSI: 230628000.

Date/timePositionNaut miles runAvg speedWind from/ knotsBaromVisibWave heightAir tempDewpointWater temp
2015-Aug-03 08:24N 59°27' E 024°46'2 2.0
2015-Aug-03 07:33N 59°28' E 024°46'2222.2
2015-Aug-03 06:33N 59°51' E 024°49'12 0.9
2015-Aug-02 16:33N 59°39' E 024°43'1211.9
2015-Aug-02 15:33N 59°27' E 024°46'1 0.8
2015-Aug-02 14:33N 59°27' E 024°47'2522.1
2015-Aug-02 13:26N 59°52' E 024°50'17 4.3
2015-Aug-02 09:33N 59°36' E 024°41'8 4.0
2015-Aug-02 07:33N 59°29' E 024°46'1918.8
2015-Aug-02 06:33N 59°47' E 024°49'22 4.1
2015-Aug-02 01:04N 60°09' E 024°55'0 0.0
2015-Aug-02 00:28N 60°09' E 024°55'0 0.0
2015-Aug-01 23:28N 60°09' E 024°55'33 4.8
2015-Aug-01 16:34N 59°36' E 024°41'10 9.5
2015-Aug-01 15:31N 59°27' E 024°46'0 0.3
2015-Aug-01 14:34N 59°27' E 024°47'2421.9
2015-Aug-01 13:28N 59°51' E 024°48'15 3.7
2015-Aug-01 09:33N 59°37' E 024°41'1010.0
2015-Aug-01 08:31N 59°27' E 024°46'2 2.3
2015-Aug-01 07:33N 59°29' E 024°46'18 1.2
2015-Jul-31 17:11N 59°47' E 024°45'1219.1
2015-Jul-31 16:33N 59°35' E 024°42'8 4.0
2015-Jul-31 14:33N 59°27' E 024°47'10 2.0
2015-Jul-31 09:32N 59°37' E 024°41'1110.4
2015-Jul-31 08:31N 59°27' E 024°46'2 2.1
2015-Jul-31 07:33N 59°29' E 024°46'20 1.4
2015-Jul-30 17:22N 59°48' E 024°52'1619.3
2015-Jul-30 16:34N 59°33' E 024°43'7 6.2
2015-Jul-30 15:29N 59°27' E 024°46'3 2.8
2015-Jul-30 14:34N 59°29' E 024°45'2322.9
2015-Jul-30 13:33N 59°52' E 024°49'2 0.5
2015-Jul-30 10:23N 59°51' E 024°48'1822.2
2015-Jul-30 09:33N 59°33' E 024°44'6 5.9
2015-Jul-30 08:32N 59°27' E 024°46'2 2.3
2015-Jul-30 07:34N 59°29' E 024°46'2119.8
2015-Jul-30 06:31N 59°50' E 024°47'17 1.4
2015-Jul-29 18:17N 60°07' E 024°54'1419.2
2015-Jul-29 17:33N 59°53' E 024°51'1919.0
2015-Jul-29 16:34N 59°34' E 024°43'7 6.4
2015-Jul-29 15:23N 59°27' E 024°46'17 3.3
2015-Jul-29 10:03N 59°44' E 024°48'1122.0
2015-Jul-29 09:34N 59°34' E 024°43'7 6.9
2015-Jul-29 08:32N 59°27' E 024°46'2 2.5
2015-Jul-29 07:34N 59°29' E 024°45'2420.3
2015-Jul-29 06:24N 59°53' E 024°51'17 2.4
2015-Jul-28 23:21N 60°09' E 024°55'0 0.0
2015-Jul-28 21:24N 60°09' E 024°55'0 0.0
2015-Jul-28 20:33N 60°09' E 024°55'0 0.0
2015-Jul-28 19:33N 60°09' E 024°55'0 0.0
2015-Jul-28 18:33N 60°09' E 024°55'1616.2
2015-Jul-28 17:33N 59°53' E 024°55'1817.7
2015-Jul-28 16:33N 59°37' E 024°41'9 4.7
2015-Jul-28 14:33N 59°28' E 024°46'2322.6
2015-Jul-28 13:34N 59°50' E 024°46'1919.3
2015-Jul-28 12:33N 60°09' E 024°55'23 9.6
2015-Jul-28 10:07N 59°46' E 024°48'1321.1
2015-Jul-28 09:29N 59°33' E 024°44'4 2.1
2015-Jul-28 07:33N 59°29' E 024°46'7 0.5
2015-Jul-27 16:34N 59°36' E 024°41'7 3.7
2015-Jul-27 14:32N 59°28' E 024°46'17 3.7
2015-Jul-27 10:04N 59°45' E 024°47'1222.7
2015-Jul-27 09:33N 59°34' E 024°43'4 2.0
2015-Jul-27 07:32N 59°30' E 024°45'10 0.7
2015-Jul-26 16:33N 59°40' E 024°45'1313.1
2015-Jul-26 15:33N 59°27' E 024°46'1 0.9
2015-Jul-26 14:34N 59°27' E 024°47'21 4.7
2015-Jul-26 10:09N 59°48' E 024°45'1321.4
2015-Jul-26 09:33N 59°35' E 024°42'9 8.6
2015-Jul-26 08:31N 59°27' E 024°46'2 1.7
2015-Jul-26 07:34N 59°28' E 024°46'1919.0
2015-Jul-26 06:34N 59°47' E 024°50'22 1.8
2015-Jul-25 18:28N 60°09' E 024°55'1516.2
2015-Jul-25 17:33N 59°54' E 024°55'1918.6
2015-Jul-25 16:33N 59°37' E 024°41'1010.3
2015-Jul-25 15:33N 59°27' E 024°46'1 0.5
2015-Jul-25 14:33N 59°27' E 024°46'2120.4
2015-Jul-25 13:32N 59°48' E 024°49'21 9.5
2015-Jul-25 11:17N 60°09' E 024°55'1216.6
2015-Jul-25 10:33N 59°57' E 024°53'2120.9
2015-Jul-25 09:33N 59°37' E 024°41'10 9.8
2015-Jul-25 08:29N 59°27' E 024°46'3 3.6
2015-Jul-25 07:33N 59°30' E 024°45'1919.4
2015-Jul-25 06:33N 59°49' E 024°50'5 0.4
2015-Jul-24 17:18N 59°44' E 024°48'1520.1
2015-Jul-24 16:33N 59°29' E 024°46'3 2.6
2015-Jul-24 15:31N 59°27' E 024°46'8 7.9
2015-Jul-24 14:33N 59°34' E 024°41'3 0.5
2015-Jul-24 09:34N 59°36' E 024°41'10 9.7
2015-Jul-24 08:32N 59°27' E 024°46'  

Dump ship's entire track history